createdAt,value
2019-05-29T00:02:24.400Z,11.10
2019-05-29T00:04:57.079Z,11.85
2019-05-29T00:07:30.070Z,11.55
2019-05-29T00:10:02.895Z,11.68
2019-05-29T00:12:35.933Z,11.40
2019-05-29T00:15:08.766Z,12.63
2019-05-29T00:17:42.214Z,12.50
2019-05-29T00:20:14.895Z,11.73
2019-05-29T00:22:47.782Z,12.00
2019-05-29T00:25:20.156Z,12.07
2019-05-29T00:27:52.739Z,11.40
2019-05-29T00:30:25.619Z,11.70
2019-05-29T00:32:58.274Z,11.50
2019-05-29T00:35:30.971Z,11.80
2019-05-29T00:38:03.780Z,11.43
2019-05-29T00:40:36.774Z,11.20
2019-05-29T00:43:11.188Z,13.08
2019-05-29T00:45:43.839Z,12.07
2019-05-29T00:48:16.296Z,12.37
2019-05-29T00:50:49.414Z,12.15
2019-05-29T00:53:21.951Z,12.58
2019-05-29T00:55:54.742Z,13.28
2019-05-29T00:58:27.545Z,13.80
2019-05-29T01:01:00.208Z,15.00
2019-05-29T01:03:33.093Z,13.95
2019-05-29T01:06:05.693Z,12.40
2019-05-29T01:08:38.611Z,11.80
2019-05-29T01:11:11.335Z,12.35
2019-05-29T01:13:45.140Z,12.63
2019-05-29T01:16:17.944Z,12.10
2019-05-29T01:18:51.653Z,13.10
2019-05-29T01:21:25.027Z,14.03
2019-05-29T01:23:57.706Z,14.10
2019-05-29T01:26:30.589Z,12.43
2019-05-29T01:29:03.493Z,12.63
2019-05-29T01:31:36.169Z,13.03
2019-05-29T01:34:09.036Z,13.93
2019-05-29T01:36:41.535Z,14.05
2019-05-29T01:39:15.136Z,13.88
2019-05-29T01:41:47.607Z,14.77
2019-05-29T01:44:21.454Z,14.50
2019-05-29T01:46:54.097Z,13.60
2019-05-29T01:49:28.035Z,13.88
2019-05-29T01:52:00.779Z,13.10
2019-05-29T01:54:33.549Z,12.47
2019-05-29T01:57:06.338Z,13.32
2019-05-29T01:59:38.913Z,13.62
2019-05-29T02:02:11.791Z,13.30
2019-05-29T02:04:44.247Z,14.40
2019-05-29T02:07:18.020Z,14.03
2019-05-29T02:09:50.632Z,13.65
2019-05-29T02:12:24.432Z,14.70
2019-05-29T02:14:56.828Z,15.23
2019-05-29T02:17:29.828Z,14.23
2019-05-29T02:20:02.558Z,13.85
2019-05-29T02:22:35.299Z,14.00
2019-05-29T02:25:09.469Z,14.43
2019-05-29T02:30:14.054Z,15.70
2019-05-29T02:32:46.503Z,15.88
2019-05-29T02:35:20.270Z,16.02
2019-05-29T02:37:53.331Z,16.07
2019-05-29T02:40:27.937Z,16.97
2019-05-29T02:45:52.868Z,15.98
2019-05-29T02:48:06.084Z,16.75
2019-05-29T02:50:38.899Z,16.37
2019-05-29T02:53:11.541Z,17.23
2019-05-29T02:55:44.203Z,18.20
2019-05-29T02:58:17.002Z,17.57
2019-05-29T03:00:52.841Z,18.42
2019-05-29T03:03:26.537Z,18.20
2019-05-29T03:05:59.629Z,18.75
2019-05-29T03:08:34.152Z,18.50
2019-05-29T03:11:06.444Z,19.50
2019-05-29T03:13:39.274Z,20.00
2019-05-29T03:16:13.168Z,19.15
2019-05-29T03:18:46.110Z,19.12
2019-05-29T03:21:19.226Z,19.12
2019-05-29T03:23:51.883Z,19.90
2019-05-29T03:26:26.920Z,19.48
2019-05-29T03:31:37.661Z,18.17
2019-05-29T03:34:04.554Z,18.55
2019-05-29T03:36:43.566Z,17.82
2019-05-29T03:39:11.439Z,17.70
2019-05-29T03:41:43.927Z,17.32
2019-05-29T03:44:16.710Z,16.62
2019-05-29T03:46:49.384Z,16.42
2019-05-29T03:49:22.535Z,14.47
2019-05-29T03:51:54.800Z,15.03
2019-05-29T03:54:28.765Z,14.43
2019-05-29T03:57:02.354Z,13.28
2019-05-29T03:59:36.904Z,13.22
2019-05-29T04:02:09.265Z,14.38
2019-05-29T04:04:41.929Z,13.28
2019-05-29T04:07:15.329Z,11.88
2019-05-29T04:09:47.800Z,12.07
2019-05-29T04:12:20.642Z,12.85
2019-05-29T04:14:54.898Z,11.33
2019-05-29T04:17:29.765Z,11.33
2019-05-29T04:20:02.904Z,11.20
2019-05-29T04:22:38.419Z,11.25
2019-05-29T04:25:10.944Z,10.53
2019-05-29T04:27:44.136Z,9.93
2019-05-29T04:30:16.813Z,9.75
2019-05-29T04:32:49.578Z,9.65
2019-05-29T04:35:22.180Z,9.03
2019-05-29T04:37:54.958Z,9.08
2019-05-29T04:40:28.603Z,9.25
2019-05-29T04:43:01.355Z,8.83
2019-05-29T04:45:39.133Z,8.63
2019-05-29T04:48:15.854Z,8.80
2019-05-29T04:50:48.874Z,8.65
2019-05-29T04:53:21.375Z,8.17
2019-05-29T04:55:54.259Z,8.15
2019-05-29T04:58:26.935Z,7.55
2019-05-29T05:00:59.794Z,7.90
2019-05-29T05:03:33.221Z,7.72
2019-05-29T05:06:06.805Z,7.45
2019-05-29T05:08:39.875Z,7.28
2019-05-29T05:11:12.896Z,7.03
2019-05-29T05:13:46.495Z,6.53
2019-05-29T05:16:19.389Z,6.22
2019-05-29T05:18:51.960Z,6.28
2019-05-29T05:21:24.841Z,6.30
2019-05-29T05:23:57.527Z,6.35
2019-05-29T05:26:30.304Z,6.37
2019-05-29T05:29:05.324Z,6.20
2019-05-29T05:31:38.573Z,6.10
2019-05-29T05:34:11.359Z,5.83
2019-05-29T05:36:43.873Z,5.70
2019-05-29T05:39:16.660Z,6.28
2019-05-29T05:41:49.474Z,5.80
2019-05-29T05:44:22.032Z,5.15
2019-05-29T05:46:54.726Z,5.05
2019-05-29T05:49:27.174Z,5.45
2019-05-29T05:52:00.902Z,5.22
2019-05-29T05:54:33.755Z,5.35
2019-05-29T05:57:06.342Z,6.40
2019-05-29T05:59:39.982Z,5.85
2019-05-29T06:02:13.814Z,5.47
2019-05-29T06:04:47.869Z,5.87
2019-05-29T06:07:21.218Z,4.55
2019-05-29T06:09:53.961Z,5.30
2019-05-29T06:12:27.950Z,5.03
2019-05-29T06:17:32.388Z,4.80
2019-05-29T06:20:07.827Z,5.28
2019-05-29T06:22:41.164Z,5.20
2019-05-29T06:25:14.170Z,5.37
2019-05-29T06:27:46.787Z,5.10
2019-05-29T06:30:19.898Z,5.42
2019-05-29T06:32:53.091Z,5.22
2019-05-29T06:35:25.666Z,5.37
2019-05-29T06:37:58.636Z,5.20
2019-05-29T06:40:40.221Z,5.25
2019-05-29T06:43:23.876Z,5.47
2019-05-29T06:45:57.590Z,5.60
2019-05-29T06:48:42.923Z,5.30
2019-05-29T06:51:05.946Z,5.60
2019-05-29T06:56:10.274Z,5.20
2019-05-29T06:58:44.336Z,4.93
2019-05-29T07:01:16.921Z,4.85
2019-05-29T07:03:49.612Z,4.78
2019-05-29T07:06:22.478Z,5.15
2019-05-29T07:08:55.365Z,4.90
2019-05-29T07:11:28.274Z,4.45
2019-05-29T07:14:00.741Z,4.25
2019-05-29T07:16:43.590Z,4.40
2019-05-29T07:19:25.318Z,4.22
2019-05-29T07:21:42.962Z,3.83
2019-05-29T07:24:16.898Z,4.20
2019-05-29T07:26:49.270Z,4.33
2019-05-29T07:29:22.036Z,3.97
2019-05-29T07:31:55.236Z,3.95
2019-05-29T07:34:28.114Z,4.12
2019-05-29T07:37:00.805Z,4.25
2019-05-29T07:39:33.457Z,3.92
2019-05-29T07:42:06.034Z,4.20
2019-05-29T07:44:39.908Z,4.03
2019-05-29T07:47:12.644Z,3.87
2019-05-29T07:49:47.165Z,3.95
2019-05-29T07:52:19.739Z,3.92
2019-05-29T07:54:52.481Z,3.87
2019-05-29T07:57:24.985Z,4.37
2019-05-29T07:59:57.676Z,4.65
2019-05-29T08:02:30.262Z,4.15
2019-05-29T08:05:03.021Z,4.17
2019-05-29T08:07:35.598Z,3.77
2019-05-29T08:10:08.682Z,3.95
2019-05-29T08:12:46.383Z,3.87
2019-05-29T08:15:15.395Z,4.05
2019-05-29T08:17:48.275Z,4.13
2019-05-29T08:20:20.953Z,4.05
2019-05-29T08:22:53.741Z,3.90
2019-05-29T08:25:26.569Z,4.17
2019-05-29T08:27:59.509Z,3.75
2019-05-29T08:30:32.393Z,4.33
2019-05-29T08:33:05.265Z,4.05
2019-05-29T08:35:37.631Z,4.10
2019-05-29T08:38:10.413Z,3.60
2019-05-29T08:40:43.079Z,3.83
2019-05-29T08:43:15.690Z,3.77
2019-05-29T08:45:49.604Z,4.17
2019-05-29T08:48:22.055Z,3.60
2019-05-29T08:50:55.453Z,4.10
2019-05-29T08:53:28.151Z,4.10
2019-05-29T08:56:00.712Z,4.43
2019-05-29T08:58:37.002Z,3.87
2019-05-29T09:01:07.628Z,4.40
2019-05-29T09:03:40.290Z,4.22
2019-05-29T09:06:13.828Z,4.00
2019-05-29T09:08:48.086Z,4.20
2019-05-29T09:11:20.675Z,4.10
2019-05-29T09:13:53.181Z,4.15
2019-05-29T09:16:25.958Z,4.15
2019-05-29T09:18:58.612Z,3.83
2019-05-29T09:21:31.419Z,4.25
2019-05-29T09:24:04.196Z,4.07
2019-05-29T09:26:37.083Z,3.92
2019-05-29T09:29:09.738Z,3.70
2019-05-29T09:31:42.423Z,4.03
2019-05-29T09:34:16.600Z,3.92
2019-05-29T09:36:49.405Z,3.80
2019-05-29T09:39:22.804Z,4.10
2019-05-29T09:41:55.297Z,4.03
2019-05-29T09:44:38.002Z,4.12
2019-05-29T09:47:02.101Z,3.75
2019-05-29T09:49:34.611Z,3.97
2019-05-29T09:52:07.359Z,3.60
2019-05-29T09:57:15.317Z,3.83
2019-05-29T09:59:46.937Z,4.12
2019-05-29T10:02:19.822Z,3.60
2019-05-29T10:04:53.131Z,4.12
2019-05-29T10:07:26.500Z,4.12
2019-05-29T10:10:00.600Z,4.08
2019-05-29T10:12:33.404Z,3.92
2019-05-29T10:15:08.342Z,3.80
2019-05-29T10:17:40.910Z,4.20
2019-05-29T10:20:15.426Z,3.70
2019-05-29T10:25:20.285Z,4.25
2019-05-29T10:27:52.976Z,4.28
2019-05-29T10:30:26.037Z,3.92
2019-05-29T10:32:58.628Z,3.85
2019-05-29T10:35:31.295Z,4.53
2019-05-29T10:38:03.874Z,4.60
2019-05-29T10:40:36.873Z,3.95
2019-05-29T10:43:09.549Z,3.90
2019-05-29T10:45:43.457Z,4.03
2019-05-29T10:48:16.343Z,4.20
2019-05-29T10:50:50.967Z,3.92
2019-05-29T10:53:23.145Z,4.30
2019-05-29T10:55:55.820Z,4.17
2019-05-29T10:58:28.405Z,4.30
2019-05-29T11:01:00.873Z,3.77
2019-05-29T11:03:33.530Z,4.35
2019-05-29T11:06:06.108Z,4.10
2019-05-29T11:08:38.891Z,4.10
2019-05-29T11:11:11.385Z,4.37
2019-05-29T11:13:43.940Z,4.08
2019-05-29T11:16:16.846Z,4.70
2019-05-29T11:18:49.516Z,4.08
2019-05-29T11:21:22.102Z,4.40
2019-05-29T11:23:55.917Z,4.30
2019-05-29T11:26:28.471Z,4.10
2019-05-29T11:29:01.262Z,3.98
2019-05-29T11:31:33.932Z,3.50
2019-05-29T11:34:06.535Z,3.97
2019-05-29T11:36:39.314Z,4.15
2019-05-29T11:39:12.403Z,3.85
2019-05-29T11:41:46.181Z,3.62
2019-05-29T11:46:50.200Z,3.25
2019-05-29T11:49:23.118Z,3.70
2019-05-29T11:52:18.620Z,3.67
2019-05-29T11:54:29.911Z,3.60
2019-05-29T11:57:03.284Z,3.47
2019-05-29T11:59:35.983Z,3.52
2019-05-29T12:02:09.081Z,4.10
2019-05-29T12:04:41.657Z,3.27
2019-05-29T12:07:14.135Z,3.47
2019-05-29T12:09:47.066Z,3.87
2019-05-29T12:12:19.714Z,3.25
2019-05-29T12:15:06.171Z,3.65
2019-05-29T12:17:27.272Z,3.70
2019-05-29T12:20:02.383Z,3.85
2019-05-29T12:22:34.175Z,3.30
2019-05-29T12:25:07.252Z,3.50
2019-05-29T12:27:39.650Z,3.55
2019-05-29T12:30:13.361Z,3.80
2019-05-29T12:32:46.573Z,3.77
2019-05-29T12:35:19.701Z,3.85
2019-05-29T12:37:53.137Z,3.70
2019-05-29T12:40:25.994Z,3.70
2019-05-29T12:43:00.078Z,3.80
2019-05-29T12:45:33.095Z,3.92
2019-05-29T12:48:12.333Z,3.80
2019-05-29T12:50:40.314Z,4.12
2019-05-29T12:53:29.022Z,3.90
2019-05-29T12:55:47.131Z,3.62
2019-05-29T12:58:19.582Z,4.00
2019-05-29T13:00:52.283Z,4.05
2019-05-29T13:03:25.066Z,3.80
2019-05-29T13:05:58.201Z,3.85
2019-05-29T13:08:30.963Z,4.22
2019-05-29T13:11:05.078Z,4.08
2019-05-29T13:13:37.722Z,3.65
2019-05-29T13:16:10.286Z,3.50
2019-05-29T13:18:42.966Z,3.60
2019-05-29T13:21:15.599Z,3.95
2019-05-29T13:23:48.341Z,3.95
2019-05-29T13:26:21.121Z,3.40
2019-05-29T13:28:53.801Z,3.47
2019-05-29T13:31:26.359Z,3.52
2019-05-29T13:33:59.961Z,3.50
2019-05-29T13:39:06.464Z,3.77
2019-05-29T13:41:39.048Z,3.27
2019-05-29T13:44:11.917Z,3.40
2019-05-29T13:46:44.595Z,3.70
2019-05-29T13:49:17.389Z,3.70
2019-05-29T13:51:50.357Z,3.45
2019-05-29T13:54:25.013Z,3.10
2019-05-29T13:56:59.601Z,3.05
2019-05-29T13:59:32.819Z,3.47
2019-05-29T14:02:06.731Z,3.17
2019-05-29T14:04:40.046Z,3.52
2019-05-29T14:07:12.712Z,3.17
2019-05-29T14:09:47.330Z,3.35
2019-05-29T14:12:19.382Z,3.60
2019-05-29T14:14:51.970Z,3.50
2019-05-29T14:17:24.753Z,3.10
2019-05-29T14:19:57.416Z,3.15
2019-05-29T14:22:29.908Z,3.67
2019-05-29T14:27:35.453Z,4.45
2019-05-29T14:32:42.473Z,4.28
2019-05-29T14:35:15.538Z,3.52
2019-05-29T14:37:48.132Z,3.35
2019-05-29T14:40:24.269Z,4.22
2019-05-29T14:42:56.958Z,3.52
2019-05-29T14:45:29.462Z,3.55
2019-05-29T14:50:34.397Z,4.05
2019-05-29T14:53:07.430Z,3.00
2019-05-29T14:55:40.252Z,4.20
2019-05-29T14:58:13.938Z,5.90
2019-05-29T15:00:47.987Z,8.35
2019-05-29T15:05:52.000Z,9.75
2019-05-29T15:08:24.802Z,50.03
2019-05-29T15:10:57.383Z,17.67
2019-05-29T15:16:04.491Z,14.18
2019-05-29T15:18:37.163Z,11.28
2019-05-29T15:21:10.964Z,5.37
2019-05-29T15:23:43.647Z,5.67
2019-05-29T15:26:16.340Z,20.95
2019-05-29T15:28:48.900Z,15.65
2019-05-29T15:31:22.101Z,4.53
2019-05-29T15:36:26.321Z,4.90
2019-05-29T15:41:30.556Z,9.88
2019-05-29T15:44:03.449Z,25.02
2019-05-29T15:46:36.118Z,43.65
2019-05-29T15:49:10.988Z,68.87
2019-05-29T15:51:43.746Z,53.13
2019-05-29T15:54:17.675Z,33.63
2019-05-29T15:59:21.755Z,34.15
2019-05-29T16:01:54.459Z,12.07
2019-05-29T16:04:27.253Z,10.43
2019-05-29T16:06:59.801Z,10.13
2019-05-29T16:09:32.594Z,12.50
2019-05-29T16:12:05.157Z,28.07
2019-05-29T16:14:37.836Z,10.25
2019-05-29T16:17:11.011Z,22.25
2019-05-29T16:19:43.528Z,7.92
2019-05-29T16:22:19.274Z,10.30
2019-05-29T16:24:51.954Z,18.37
2019-05-29T16:27:30.086Z,34.92
2019-05-29T16:29:57.739Z,19.50
2019-05-29T16:32:29.890Z,8.25
2019-05-29T16:35:02.647Z,6.95
2019-05-29T16:37:35.360Z,6.97
2019-05-29T16:40:12.136Z,6.00
2019-05-29T16:42:44.595Z,5.80
2019-05-29T16:45:20.552Z,5.30
2019-05-29T16:47:53.029Z,5.95
2019-05-29T16:50:25.607Z,9.33
2019-05-29T16:52:58.183Z,7.35
2019-05-29T16:55:30.659Z,6.60
2019-05-29T16:58:03.445Z,6.30
2019-05-29T17:00:36.225Z,6.60
2019-05-29T17:03:08.905Z,6.15
2019-05-29T17:05:41.786Z,5.63
2019-05-29T17:08:14.444Z,5.33
2019-05-29T17:10:47.142Z,5.97
2019-05-29T17:13:20.660Z,6.07
2019-05-29T17:15:53.322Z,5.20
2019-05-29T17:18:26.104Z,5.67
2019-05-29T17:20:58.895Z,4.92
2019-05-29T17:23:31.568Z,5.60
2019-05-29T17:26:10.843Z,5.45
2019-05-29T17:28:38.582Z,5.45
2019-05-29T17:31:11.249Z,5.23
2019-05-29T17:33:43.907Z,5.10
2019-05-29T17:36:16.871Z,5.72
2019-05-29T17:38:49.539Z,6.13
2019-05-29T17:41:23.502Z,6.65
2019-05-29T17:43:56.287Z,5.80
2019-05-29T17:46:28.957Z,7.43
2019-05-29T17:49:01.651Z,5.83
2019-05-29T17:51:34.325Z,5.70
2019-05-29T17:54:07.109Z,5.58
2019-05-29T17:56:39.927Z,5.80
2019-05-29T17:59:12.676Z,5.78
2019-05-29T18:01:45.660Z,5.80
2019-05-29T18:04:18.447Z,5.83
2019-05-29T18:06:50.893Z,5.25
2019-05-29T18:09:27.026Z,4.87
2019-05-29T18:11:57.696Z,4.80
2019-05-29T18:14:30.598Z,5.40
2019-05-29T18:17:03.577Z,5.08
2019-05-29T18:19:37.586Z,4.97
2019-05-29T18:22:10.267Z,5.30
2019-05-29T18:24:42.740Z,5.33
2019-05-29T18:27:15.732Z,5.00
2019-05-29T18:29:48.399Z,5.25
2019-05-29T18:32:22.340Z,5.05
2019-05-29T18:34:56.638Z,6.00
2019-05-29T18:37:29.417Z,5.45
2019-05-29T18:40:02.182Z,5.12
2019-05-29T18:42:34.782Z,5.30
2019-05-29T18:45:20.370Z,5.28
2019-05-29T18:47:44.503Z,5.28
2019-05-29T18:50:17.703Z,5.27
2019-05-29T18:52:50.889Z,5.40
2019-05-29T18:55:24.823Z,5.50
2019-05-29T18:57:57.495Z,5.40
2019-05-29T19:00:31.529Z,6.10
2019-05-29T19:03:04.289Z,6.30
2019-05-29T19:05:36.999Z,6.00
2019-05-29T19:08:11.195Z,6.50
2019-05-29T19:10:44.087Z,6.00
2019-05-29T19:13:16.846Z,6.70
2019-05-29T19:18:23.965Z,7.65
2019-05-29T19:20:58.033Z,7.75
2019-05-29T19:23:31.116Z,11.70
2019-05-29T19:26:03.746Z,11.25
2019-05-29T19:28:36.486Z,8.90
2019-05-29T19:31:10.653Z,7.33
2019-05-29T19:33:43.125Z,7.00
2019-05-29T19:36:15.779Z,7.17
2019-05-29T19:38:51.357Z,7.50
2019-05-29T19:41:24.316Z,7.17
2019-05-29T19:44:00.795Z,7.60
2019-05-29T19:46:52.259Z,7.55
2019-05-29T19:49:07.799Z,7.97
2019-05-29T19:51:40.577Z,8.10
2019-05-29T19:54:13.239Z,8.28
2019-05-29T19:56:45.750Z,8.30
2019-05-29T19:59:18.512Z,8.38
2019-05-29T20:01:52.830Z,8.28
2019-05-29T20:04:26.636Z,8.28
2019-05-29T20:07:01.878Z,8.75
2019-05-29T20:09:35.418Z,9.00
2019-05-29T20:14:40.340Z,8.28
2019-05-29T20:17:12.690Z,8.70
2019-05-29T20:19:46.717Z,8.28
2019-05-29T20:24:50.992Z,8.50
2019-05-29T20:27:23.634Z,8.30
2019-05-29T20:29:56.538Z,8.28
2019-05-29T20:35:04.795Z,8.28
2019-05-29T20:37:38.377Z,7.78
2019-05-29T20:40:11.442Z,8.50
2019-05-29T20:42:44.208Z,8.35
2019-05-29T20:45:16.783Z,8.70
2019-05-29T20:47:49.666Z,8.47
2019-05-29T20:50:22.659Z,9.18
2019-05-29T20:52:55.551Z,8.40
2019-05-29T20:55:28.325Z,8.35
2019-05-29T20:58:00.896Z,7.85
2019-05-29T21:00:36.108Z,8.38
2019-05-29T21:03:08.716Z,7.90
2019-05-29T21:05:42.853Z,8.53
2019-05-29T21:08:15.736Z,8.38
2019-05-29T21:10:48.484Z,7.65
2019-05-29T21:13:21.266Z,7.58
2019-05-29T21:15:54.045Z,7.53
2019-05-29T21:18:26.939Z,7.35
2019-05-29T21:21:00.019Z,7.92
2019-05-29T21:23:32.610Z,7.90
2019-05-29T21:26:05.604Z,7.75
2019-05-29T21:28:44.430Z,7.75
2019-05-29T21:31:13.150Z,7.50
2019-05-29T21:33:49.234Z,17.17
2019-05-29T21:36:21.831Z,22.25
2019-05-29T21:41:26.985Z,6.17
2019-05-29T21:44:01.533Z,7.13
2019-05-29T21:46:34.953Z,6.67
2019-05-29T21:49:07.686Z,6.72
2019-05-29T21:51:41.506Z,7.00
2019-05-29T21:54:14.069Z,6.33
2019-05-29T21:56:47.888Z,6.80
2019-05-29T21:59:20.468Z,6.72
2019-05-29T22:01:53.344Z,7.00
2019-05-29T22:04:25.933Z,7.30
2019-05-29T22:06:58.407Z,7.70
2019-05-29T22:09:31.497Z,7.15
2019-05-29T22:12:04.973Z,7.20
2019-05-29T22:14:38.687Z,7.42
2019-05-29T22:17:12.284Z,6.97
2019-05-29T22:19:45.185Z,6.90
2019-05-29T22:22:17.765Z,6.95
2019-05-29T22:24:51.141Z,6.47
2019-05-29T22:27:23.824Z,6.60
2019-05-29T22:29:57.364Z,7.43
2019-05-29T22:32:30.050Z,6.50
2019-05-29T22:35:02.907Z,6.87
2019-05-29T22:37:35.489Z,7.20
2019-05-29T22:40:09.407Z,7.15
2019-05-29T22:43:03.355Z,7.20
2019-05-29T22:45:35.943Z,7.30
2019-05-29T22:48:09.138Z,7.50
2019-05-29T22:50:42.022Z,7.20
2019-05-29T22:53:15.389Z,6.67
2019-05-29T22:55:48.102Z,7.78
2019-05-29T22:58:21.086Z,7.53
2019-05-29T23:00:54.204Z,7.83
2019-05-29T23:03:27.489Z,8.38
2019-05-29T23:06:00.473Z,8.00
2019-05-29T23:08:33.665Z,8.10
2019-05-29T23:11:06.637Z,8.55
2019-05-29T23:13:39.425Z,9.15
2019-05-29T23:16:12.412Z,9.30
2019-05-29T23:18:45.498Z,11.53
2019-05-29T23:21:18.473Z,10.90
2019-05-29T23:23:51.557Z,10.28
2019-05-29T23:26:24.153Z,9.90
2019-05-29T23:28:56.917Z,13.43
2019-05-29T23:31:30.715Z,16.10
2019-05-29T23:34:03.667Z,12.20
2019-05-29T23:36:36.108Z,14.00
2019-05-29T23:39:10.316Z,16.50
2019-05-29T23:41:44.353Z,18.27
2019-05-29T23:44:16.965Z,18.02
2019-05-29T23:46:49.485Z,17.90
2019-05-29T23:49:23.269Z,18.45
2019-05-29T23:51:55.966Z,18.85
2019-05-29T23:54:28.758Z,17.55
2019-05-29T23:57:01.982Z,15.00
2019-05-29T23:59:34.622Z,11.97
